createdAt,value
2023-06-05T00:00:16.025Z,78.76
2023-06-05T00:02:42.999Z,77.25
2023-06-05T00:05:10.976Z,81.14
2023-06-05T00:07:40.683Z,86.25
2023-06-05T00:10:09.835Z,88.31
2023-06-05T00:12:37.260Z,87.39
2023-06-05T00:15:06.165Z,87.87
2023-06-05T00:17:33.293Z,89.35
2023-06-05T00:20:00.236Z,90.31
2023-06-05T00:22:29.356Z,91.45
2023-06-05T00:24:56.618Z,91.88
2023-06-05T00:27:23.551Z,95.33
2023-06-05T00:29:54.930Z,89.08
2023-06-05T00:32:21.798Z,87.15
2023-06-05T00:34:51.363Z,84.77
2023-06-05T00:37:18.295Z,80.45
2023-06-05T00:39:45.157Z,75.68
2023-06-05T00:42:12.180Z,78.02
2023-06-05T00:44:39.119Z,77.71
2023-06-05T00:47:06.415Z,77.96
2023-06-05T00:49:38.289Z,81.14
2023-06-05T00:52:05.503Z,81.43
2023-06-05T00:54:32.512Z,82.95
2023-06-05T00:56:59.462Z,76.48
2023-06-05T00:59:27.766Z,71.66
2023-06-05T01:01:55.541Z,70.93
2023-06-05T01:04:24.840Z,71.68
2023-06-05T01:06:52.893Z,72.06
2023-06-05T01:09:20.112Z,75.77
2023-06-05T01:11:57.408Z,83.07
2023-06-05T01:14:25.633Z,75.51
2023-06-05T01:16:57.784Z,73.48
2023-06-05T01:19:33.032Z,72.46
2023-06-05T01:22:00.726Z,72.04
2023-06-05T01:24:29.286Z,80.26
2023-06-05T01:26:56.307Z,81.16
2023-06-05T01:29:29.693Z,81.51
2023-06-05T01:32:02.593Z,81.39
2023-06-05T01:34:29.883Z,78.21
2023-06-05T01:36:57.503Z,73.98
2023-06-05T01:39:24.998Z,72.70
2023-06-05T01:41:53.226Z,67.93
2023-06-05T01:47:20.199Z,70.49
2023-06-05T01:58:39.910Z,79.34
2023-06-05T02:01:07.156Z,81.11
2023-06-05T02:03:34.482Z,81.42
2023-06-05T02:06:01.774Z,78.32
2023-06-05T02:08:36.772Z,75.99
2023-06-05T02:11:04.206Z,69.55
2023-06-05T02:13:31.256Z,69.42
2023-06-05T02:15:58.679Z,69.59
2023-06-05T02:18:26.990Z,74.84
2023-06-05T02:20:57.599Z,75.11
2023-06-05T02:23:26.081Z,84.09
2023-06-05T02:25:53.293Z,88.18
2023-06-05T02:28:21.657Z,88.50
2023-06-05T02:30:49.159Z,91.20
2023-06-05T02:33:16.335Z,92.86
2023-06-05T02:35:43.465Z,90.37
2023-06-05T02:38:11.423Z,92.57
2023-06-05T02:40:38.366Z,88.00
2023-06-05T02:43:06.841Z,84.14
2023-06-05T02:45:36.006Z,81.63
2023-06-05T02:48:03.104Z,84.41
2023-06-05T02:50:30.278Z,84.78
2023-06-05T02:52:57.341Z,88.49
2023-06-05T02:55:24.285Z,87.55
2023-06-05T02:57:51.204Z,86.48
2023-06-05T03:00:18.742Z,87.99
2023-06-05T03:02:49.964Z,83.86
2023-06-05T03:05:19.483Z,85.32
2023-06-05T03:07:47.202Z,82.09
2023-06-05T03:10:14.129Z,72.72
2023-06-05T03:12:41.046Z,72.48
2023-06-05T03:15:08.850Z,72.74
2023-06-05T03:17:35.908Z,72.73
2023-06-05T03:20:03.301Z,73.87
2023-06-05T03:22:30.221Z,77.05
2023-06-05T03:24:57.076Z,76.10
2023-06-05T03:27:23.952Z,77.13
2023-06-05T03:29:51.896Z,75.94
2023-06-05T03:32:18.791Z,75.20
2023-06-05T03:34:49.848Z,76.01
2023-06-05T03:37:16.889Z,76.32
2023-06-05T03:39:43.995Z,76.06
2023-06-05T03:42:12.358Z,74.77
2023-06-05T03:44:39.349Z,74.52
2023-06-05T03:47:07.336Z,73.33
2023-06-05T03:49:34.296Z,71.28
2023-06-05T03:52:04.960Z,71.60
2023-06-05T03:54:35.014Z,72.94
2023-06-05T03:57:01.944Z,72.38
2023-06-05T03:59:29.860Z,73.79
2023-06-05T04:01:58.180Z,72.31
2023-06-05T04:04:25.176Z,68.66
2023-06-05T04:06:55.379Z,69.26
2023-06-05T04:09:22.358Z,68.05
2023-06-05T04:11:50.683Z,67.29
2023-06-05T04:14:17.590Z,64.80
2023-06-05T04:16:44.936Z,68.64
2023-06-05T04:19:13.473Z,70.70
2023-06-05T04:21:40.786Z,73.16
2023-06-05T04:24:10.833Z,72.77
2023-06-05T04:26:39.231Z,70.42
2023-06-05T04:29:14.893Z,70.94
2023-06-05T04:31:43.042Z,68.52
2023-06-05T04:34:10.051Z,73.12
2023-06-05T04:36:37.573Z,71.41
2023-06-05T04:39:05.715Z,69.36
2023-06-05T04:41:33.876Z,65.37
2023-06-05T04:44:03.713Z,67.54
2023-06-05T04:46:30.660Z,69.78
2023-06-05T04:48:59.028Z,72.67
2023-06-05T04:51:26.381Z,68.47
2023-06-05T04:53:54.033Z,68.67
2023-06-05T04:56:24.502Z,67.51
2023-06-05T04:58:53.295Z,67.91
2023-06-05T05:01:21.027Z,70.91
2023-06-05T05:03:48.443Z,72.21
2023-06-05T05:06:16.389Z,74.06
2023-06-05T05:08:46.371Z,76.65
2023-06-05T05:11:14.141Z,78.35
2023-06-05T05:13:41.171Z,74.94
2023-06-05T05:16:12.146Z,82.35
2023-06-05T05:18:45.328Z,79.87
2023-06-05T05:21:12.285Z,79.84
2023-06-05T05:23:39.283Z,77.88
2023-06-05T05:26:06.424Z,76.52
2023-06-05T05:28:33.435Z,80.96
2023-06-05T05:31:01.448Z,79.63
2023-06-05T05:33:28.340Z,78.77
2023-06-05T05:35:55.267Z,72.22
2023-06-05T05:38:22.424Z,71.58
2023-06-05T05:40:50.822Z,73.26
2023-06-05T05:43:19.311Z,73.05
2023-06-05T05:45:46.271Z,71.27
2023-06-05T05:48:13.197Z,75.74
2023-06-05T05:50:42.110Z,79.46
2023-06-05T05:53:09.104Z,78.85
2023-06-05T05:55:36.032Z,79.74
2023-06-05T05:58:03.212Z,76.59
2023-06-05T06:00:30.212Z,80.85
2023-06-05T06:02:57.421Z,79.26
2023-06-05T06:05:24.523Z,76.57
2023-06-05T06:07:51.527Z,72.42
2023-06-05T06:10:18.822Z,69.93
2023-06-05T06:12:46.575Z,72.39
2023-06-05T06:15:13.492Z,74.62
2023-06-05T06:17:41.269Z,71.80
2023-06-05T06:20:12.807Z,73.28
2023-06-05T06:22:40.321Z,77.10
2023-06-05T06:25:08.772Z,76.19
2023-06-05T06:27:36.128Z,76.40
2023-06-05T06:30:04.128Z,74.35
2023-06-05T06:32:31.089Z,76.83
2023-06-05T06:34:58.603Z,73.40
2023-06-05T06:37:25.733Z,74.77
2023-06-05T06:39:52.637Z,72.78
2023-06-05T06:42:19.690Z,74.99
2023-06-05T06:44:46.589Z,76.04
2023-06-05T06:47:13.526Z,75.83
2023-06-05T06:49:42.136Z,77.75
2023-06-05T06:52:09.150Z,76.34
2023-06-05T06:54:37.393Z,76.04
2023-06-05T06:57:04.411Z,76.52
2023-06-05T06:59:31.402Z,78.18
2023-06-05T07:02:13.309Z,73.89
2023-06-05T07:04:42.792Z,78.31
2023-06-05T07:07:13.957Z,80.83
2023-06-05T07:09:41.862Z,77.13
2023-06-05T07:12:13.952Z,77.03
2023-06-05T07:14:41.562Z,71.96
2023-06-05T07:17:08.999Z,73.28
2023-06-05T07:19:37.785Z,74.25
2023-06-05T07:22:05.673Z,70.64
2023-06-05T07:24:33.309Z,71.25
2023-06-05T07:27:04.141Z,69.50
2023-06-05T07:29:31.424Z,66.84
2023-06-05T07:32:00.244Z,65.31
2023-06-05T07:34:28.153Z,68.35
2023-06-05T07:36:56.915Z,63.95
2023-06-05T07:39:24.386Z,63.84
2023-06-05T07:41:51.318Z,67.16
2023-06-05T07:44:20.074Z,64.75
2023-06-05T07:46:48.244Z,68.54
2023-06-05T07:49:18.758Z,69.68
2023-06-05T07:51:48.987Z,71.04
2023-06-05T07:54:20.610Z,69.32
2023-06-05T07:56:50.427Z,68.10
2023-06-05T07:59:17.924Z,67.69
2023-06-05T08:01:46.641Z,67.09
2023-06-05T08:04:14.054Z,68.43
2023-06-05T08:06:41.563Z,67.92
2023-06-05T08:09:10.613Z,66.67
2023-06-05T08:11:38.692Z,61.43
2023-06-05T08:14:09.210Z,63.05
2023-06-05T08:16:40.433Z,62.64
2023-06-05T08:19:07.949Z,60.37
2023-06-05T08:21:35.480Z,62.64
2023-06-05T08:24:02.510Z,63.81
2023-06-05T08:26:29.499Z,63.71
2023-06-05T08:28:56.451Z,62.14
2023-06-05T08:31:23.463Z,63.31
2023-06-05T08:33:50.409Z,65.70
2023-06-05T08:36:17.737Z,64.83
2023-06-05T08:38:45.362Z,60.49
2023-06-05T08:41:15.026Z,60.40
2023-06-05T08:43:45.825Z,58.52
2023-06-05T08:46:13.764Z,57.20
2023-06-05T08:48:48.097Z,58.47
2023-06-05T08:51:16.834Z,57.61
2023-06-05T08:53:51.143Z,59.11
2023-06-05T08:56:18.837Z,58.04
2023-06-05T08:58:46.509Z,55.88
2023-06-05T09:01:13.539Z,58.99
2023-06-05T09:03:40.522Z,60.91
2023-06-05T09:06:07.934Z,57.03
2023-06-05T09:08:35.876Z,61.55
2023-06-05T09:11:22.515Z,58.17
2023-06-05T09:13:50.664Z,56.15
2023-06-05T09:16:21.673Z,57.69
2023-06-05T09:19:04.549Z,54.44
2023-06-05T09:21:36.907Z,53.65
2023-06-05T09:24:20.115Z,59.86
2023-06-05T09:26:51.831Z,58.91
2023-06-05T09:29:44.943Z,56.97
2023-06-05T09:32:21.553Z,59.38
2023-06-05T09:35:00.780Z,55.70
2023-06-05T09:37:36.508Z,58.16
2023-06-05T09:40:06.519Z,54.82
2023-06-05T09:42:34.376Z,55.11
2023-06-05T09:45:02.632Z,57.50
2023-06-05T09:47:35.650Z,55.24
2023-06-05T09:50:22.311Z,54.63
2023-06-05T09:52:49.541Z,53.87
2023-06-05T09:55:16.580Z,55.96
2023-06-05T09:57:43.873Z,54.10
2023-06-05T10:00:13.173Z,49.29
2023-06-05T10:02:40.389Z,49.26
2023-06-05T10:05:11.149Z,51.00
2023-06-05T10:07:40.191Z,50.51
2023-06-05T10:10:12.515Z,51.60
2023-06-05T10:12:39.944Z,48.93
2023-06-05T10:15:08.108Z,47.60
2023-06-05T10:17:37.962Z,48.39
2023-06-05T10:20:07.769Z,51.16
2023-06-05T10:22:37.677Z,49.85
2023-06-05T10:25:07.363Z,49.48
2023-06-05T10:27:37.375Z,47.55
2023-06-05T10:30:36.672Z,46.68
2023-06-05T10:33:33.457Z,47.53
2023-06-05T10:36:23.222Z,47.43
2023-06-05T10:38:50.139Z,44.55
2023-06-05T10:41:18.794Z,48.16
2023-06-05T10:43:54.208Z,48.63
2023-06-05T10:46:38.287Z,46.13
2023-06-05T10:49:17.309Z,46.15
2023-06-05T10:51:48.115Z,43.87
2023-06-05T10:54:25.292Z,44.35
2023-06-05T10:56:56.830Z,46.33
2023-06-05T10:59:35.539Z,44.28
2023-06-05T11:02:17.825Z,45.56
2023-06-05T11:04:48.135Z,43.35
2023-06-05T11:07:26.258Z,46.40
2023-06-05T11:10:11.727Z,46.96
2023-06-05T11:12:41.536Z,46.89
2023-06-05T11:15:09.899Z,45.08
2023-06-05T11:17:43.435Z,45.70
2023-06-05T11:20:30.660Z,46.35
2023-06-05T11:23:00.564Z,45.07
2023-06-05T11:25:29.372Z,43.56
2023-06-05T11:27:57.929Z,41.96
2023-06-05T11:33:18.750Z,44.17
2023-06-05T11:35:47.871Z,44.76
2023-06-05T11:38:22.057Z,46.25
2023-06-05T11:40:50.966Z,44.50
2023-06-05T11:43:18.241Z,44.86
2023-06-05T11:45:56.035Z,46.99
2023-06-05T11:48:45.098Z,45.11
2023-06-05T11:51:12.140Z,45.84
2023-06-05T11:53:46.180Z,48.22
2023-06-05T11:56:19.126Z,47.71
2023-06-05T11:58:46.653Z,47.12
2023-06-05T12:01:23.773Z,45.94
2023-06-05T12:04:04.164Z,46.27
2023-06-05T12:06:31.115Z,47.49
2023-06-05T12:09:15.570Z,47.37
2023-06-05T12:11:45.636Z,46.04
2023-06-05T12:14:30.683Z,47.57
2023-06-05T12:16:59.809Z,43.27
2023-06-05T12:19:28.290Z,45.01
2023-06-05T12:22:08.158Z,45.83
2023-06-05T12:24:35.262Z,47.42
2023-06-05T12:27:05.319Z,45.72
2023-06-05T12:35:05.639Z,44.30
2023-06-05T12:37:38.770Z,42.82
2023-06-05T12:40:12.068Z,44.55
2023-06-05T12:42:42.217Z,44.28
2023-06-05T12:45:09.586Z,42.45
2023-06-05T12:47:37.335Z,42.67
2023-06-05T12:50:08.875Z,44.17
2023-06-05T12:52:55.914Z,45.63
2023-06-05T12:55:28.640Z,43.75
2023-06-05T13:00:29.126Z,42.48
2023-06-05T13:02:56.153Z,42.47
2023-06-05T13:05:23.080Z,41.96
2023-06-05T13:07:52.575Z,41.08
2023-06-05T13:10:19.534Z,44.57
2023-06-05T13:12:49.313Z,44.32
2023-06-05T13:15:16.412Z,43.25
2023-06-05T13:17:44.770Z,43.86
2023-06-05T13:20:31.936Z,43.46
2023-06-05T13:22:58.853Z,42.82
2023-06-05T13:25:25.740Z,41.75
2023-06-05T13:27:52.619Z,42.67
2023-06-05T13:30:21.631Z,41.17
2023-06-05T13:32:49.536Z,40.93
2023-06-05T13:35:16.418Z,40.37
2023-06-05T13:37:43.300Z,40.00
2023-06-05T13:40:14.113Z,39.59
2023-06-05T13:42:41.197Z,40.90
2023-06-05T13:45:09.043Z,39.97
2023-06-05T13:47:36.167Z,43.41
2023-06-05T13:50:03.983Z,41.17
2023-06-05T13:52:30.956Z,42.03
2023-06-05T13:54:58.636Z,43.10
2023-06-05T13:57:25.500Z,41.03
2023-06-05T13:59:54.416Z,46.06
2023-06-05T14:02:21.275Z,43.61
2023-06-05T14:04:48.184Z,42.54
2023-06-05T14:07:15.343Z,42.78
2023-06-05T14:09:42.773Z,41.98
2023-06-05T14:12:11.161Z,41.99
2023-06-05T14:14:38.188Z,42.23
2023-06-05T14:17:05.171Z,43.29
2023-06-05T14:19:32.146Z,40.11
2023-06-05T14:21:59.060Z,40.64
2023-06-05T14:24:25.976Z,42.37
2023-06-05T14:26:54.985Z,42.51
2023-06-05T14:29:21.886Z,43.48
2023-06-05T14:31:48.946Z,43.95
2023-06-05T14:34:16.917Z,44.69
2023-06-05T14:36:51.324Z,44.97
2023-06-05T14:39:20.003Z,44.99
2023-06-05T14:41:46.921Z,47.59
2023-06-05T14:44:22.376Z,46.80
2023-06-05T14:46:50.837Z,47.17
2023-06-05T14:49:19.620Z,47.30
2023-06-05T14:51:46.803Z,46.29
2023-06-05T14:54:14.576Z,47.26
2023-06-05T14:56:41.465Z,45.05
2023-06-05T14:59:18.632Z,44.47
2023-06-05T15:01:52.607Z,46.09
2023-06-05T15:04:19.664Z,44.21
2023-06-05T15:06:47.450Z,44.55
2023-06-05T15:09:15.688Z,45.17
2023-06-05T15:11:42.586Z,44.94
2023-06-05T15:14:09.465Z,46.69
2023-06-05T15:16:42.063Z,46.08
2023-06-05T15:19:10.220Z,43.93
2023-06-05T15:21:37.844Z,44.73
2023-06-05T15:24:05.145Z,46.50
2023-06-05T15:26:32.202Z,45.68
2023-06-05T15:28:59.104Z,45.33
2023-06-05T15:31:26.124Z,45.69
2023-06-05T15:33:53.031Z,45.78
2023-06-05T15:36:20.012Z,45.04
2023-06-05T15:38:46.957Z,44.97
2023-06-05T15:41:14.757Z,46.34
2023-06-05T15:43:42.155Z,45.71
2023-06-05T15:46:09.930Z,46.55
2023-06-05T15:48:37.090Z,46.25
2023-06-05T15:51:05.484Z,45.08
2023-06-05T15:53:37.416Z,45.87
2023-06-05T15:56:07.160Z,47.17
2023-06-05T15:58:34.145Z,48.39
2023-06-05T16:01:01.091Z,46.85
2023-06-05T16:03:28.078Z,47.19
2023-06-05T16:05:55.034Z,46.78
2023-06-05T16:08:22.908Z,47.34
2023-06-05T16:10:49.822Z,51.17
2023-06-05T16:13:17.600Z,51.72
2023-06-05T16:15:45.221Z,52.11
2023-06-05T16:18:12.229Z,54.73
2023-06-05T16:20:39.151Z,56.37
2023-06-05T16:23:06.202Z,60.49
2023-06-05T16:25:33.165Z,57.56
2023-06-05T16:28:00.146Z,58.86
2023-06-05T16:30:27.071Z,59.48
2023-06-05T16:32:54.068Z,59.09
2023-06-05T16:35:21.364Z,57.58
2023-06-05T16:37:48.290Z,60.05
2023-06-05T16:40:15.269Z,59.21
2023-06-05T16:42:42.470Z,59.47
2023-06-05T16:45:09.629Z,61.74
2023-06-05T16:47:36.944Z,64.87
2023-06-05T16:50:03.981Z,61.72
2023-06-05T16:52:30.939Z,61.85
2023-06-05T16:54:57.819Z,58.08
2023-06-05T16:57:24.788Z,56.09
2023-06-05T16:59:51.916Z,54.98
2023-06-05T17:02:19.010Z,53.01
2023-06-05T17:04:46.441Z,51.65
2023-06-05T17:07:13.632Z,53.44
2023-06-05T17:09:42.309Z,53.67
2023-06-05T17:12:09.413Z,52.30
2023-06-05T17:14:36.386Z,51.96
2023-06-05T17:17:03.355Z,52.67
2023-06-05T17:19:30.264Z,53.58
2023-06-05T17:21:57.149Z,54.05
2023-06-05T17:24:25.778Z,52.68
2023-06-05T17:26:52.743Z,52.10
2023-06-05T17:29:19.841Z,51.69
2023-06-05T17:31:52.762Z,52.69
2023-06-05T17:34:20.519Z,54.56
2023-06-05T17:36:47.444Z,55.27
2023-06-05T17:39:14.484Z,58.93
2023-06-05T17:41:41.424Z,58.35
2023-06-05T17:44:08.321Z,59.00
2023-06-05T17:46:35.215Z,53.68
2023-06-05T17:49:02.428Z,54.52
2023-06-05T17:51:29.560Z,54.93
2023-06-05T17:53:56.757Z,54.70
2023-06-05T17:56:23.901Z,52.72
2023-06-05T17:58:50.882Z,55.52
2023-06-05T18:01:18.641Z,55.62
2023-06-05T18:03:46.564Z,56.55
2023-06-05T18:06:13.654Z,55.42
2023-06-05T18:08:40.848Z,55.70
2023-06-05T18:11:08.053Z,55.97
2023-06-05T18:13:35.191Z,55.19
2023-06-05T18:16:03.990Z,54.83
2023-06-05T18:18:31.102Z,55.52
2023-06-05T18:20:58.021Z,55.82
2023-06-05T18:23:25.007Z,55.38
2023-06-05T18:25:51.946Z,56.09
2023-06-05T18:28:18.836Z,57.07
2023-06-05T18:30:45.896Z,58.33
2023-06-05T18:33:13.324Z,58.47
2023-06-05T18:35:41.937Z,58.73
2023-06-05T18:38:10.480Z,58.00
2023-06-05T18:40:37.833Z,58.20
2023-06-05T18:43:04.771Z,58.60
2023-06-05T18:45:33.760Z,58.35
2023-06-05T18:48:00.793Z,57.56
2023-06-05T18:50:28.571Z,58.37
2023-06-05T18:52:55.718Z,59.88
2023-06-05T18:55:22.698Z,61.08
2023-06-05T18:57:49.571Z,61.30
2023-06-05T19:00:16.911Z,62.04
2023-06-05T19:02:43.826Z,64.01
2023-06-05T19:05:10.932Z,65.44
2023-06-05T19:07:37.921Z,64.25
2023-06-05T19:10:07.110Z,61.96
2023-06-05T19:12:38.378Z,59.34
2023-06-05T19:15:05.654Z,59.90
2023-06-05T19:17:32.598Z,62.71
2023-06-05T19:19:59.522Z,64.26
2023-06-05T19:22:26.495Z,64.42
2023-06-05T19:24:53.372Z,64.01
2023-06-05T19:27:22.614Z,64.62
2023-06-05T19:29:50.520Z,62.74
2023-06-05T19:32:17.677Z,60.81
2023-06-05T19:34:44.637Z,59.93
2023-06-05T19:37:11.697Z,60.78
2023-06-05T19:39:38.632Z,62.29
2023-06-05T19:42:07.022Z,61.46
2023-06-05T19:44:35.172Z,64.57
2023-06-05T19:47:02.061Z,63.47
2023-06-05T19:49:28.909Z,63.59
2023-06-05T19:51:55.965Z,63.21
2023-06-05T19:54:22.846Z,60.48
2023-06-05T19:56:50.916Z,64.28
2023-06-05T19:59:17.814Z,65.88
2023-06-05T20:01:44.930Z,68.01
2023-06-05T20:04:12.038Z,75.80
2023-06-05T20:06:38.960Z,74.95
2023-06-05T20:09:05.906Z,73.91
2023-06-05T20:11:33.099Z,76.93
2023-06-05T20:13:59.968Z,82.42
2023-06-05T20:16:26.891Z,78.95
2023-06-05T20:18:53.841Z,74.95
2023-06-05T20:21:20.848Z,69.47
2023-06-05T20:23:51.703Z,67.78
2023-06-05T20:26:19.358Z,68.37
2023-06-05T20:28:46.404Z,69.35
2023-06-05T20:31:13.542Z,68.34
2023-06-05T20:33:40.655Z,68.56
2023-06-05T20:36:11.219Z,67.20
2023-06-05T20:38:39.180Z,66.40
2023-06-05T20:41:09.345Z,66.68
2023-06-05T20:43:36.949Z,63.69
2023-06-05T20:46:07.896Z,64.38
2023-06-05T20:48:37.096Z,66.43
2023-06-05T20:51:09.172Z,65.80
2023-06-05T20:53:37.715Z,68.89
2023-06-05T20:56:05.638Z,70.65
2023-06-05T20:58:32.900Z,74.41
2023-06-05T21:00:59.855Z,74.91
2023-06-05T21:03:26.844Z,78.65
2023-06-05T21:05:53.867Z,75.68
2023-06-05T21:08:20.825Z,75.96
2023-06-05T21:10:47.743Z,87.75
2023-06-05T21:13:14.610Z,79.52
2023-06-05T21:15:41.490Z,78.06
2023-06-05T21:18:08.481Z,75.35
2023-06-05T21:20:35.681Z,75.78
2023-06-05T21:23:02.564Z,72.04
2023-06-05T21:25:29.517Z,72.36
2023-06-05T21:27:56.412Z,70.99
2023-06-05T21:30:23.258Z,71.56
2023-06-05T21:32:50.801Z,68.02
2023-06-05T21:35:17.796Z,68.75
2023-06-05T21:37:44.692Z,70.46
2023-06-05T21:40:11.951Z,71.50
2023-06-05T21:42:38.809Z,69.23
2023-06-05T21:45:06.544Z,69.36
2023-06-05T21:47:33.488Z,73.65
2023-06-05T21:50:00.517Z,78.34
2023-06-05T21:52:27.602Z,78.30
2023-06-05T21:54:56.218Z,83.21
2023-06-05T21:57:23.124Z,77.73
2023-06-05T21:59:50.032Z,80.97
2023-06-05T22:02:17.054Z,79.38
2023-06-05T22:04:45.196Z,78.89
2023-06-05T22:07:12.965Z,84.63
2023-06-05T22:09:39.854Z,80.21
2023-06-05T22:12:07.777Z,84.71
2023-06-05T22:14:34.671Z,94.30
2023-06-05T22:17:01.583Z,100.00
2023-06-05T22:19:29.056Z,100.00
2023-06-05T22:21:57.395Z,98.92
2023-06-05T22:24:24.834Z,100.00
2023-06-05T22:26:51.748Z,100.00
2023-06-05T22:29:18.616Z,99.27
2023-06-05T22:31:45.592Z,99.41
2023-06-05T22:34:12.557Z,89.47
2023-06-05T22:36:40.579Z,85.50
2023-06-05T22:39:07.497Z,87.63
2023-06-05T22:41:34.666Z,86.63
2023-06-05T22:44:01.521Z,80.07
2023-06-05T22:46:28.419Z,80.30
2023-06-05T22:48:55.738Z,81.65
2023-06-05T22:51:25.451Z,89.43
2023-06-05T22:53:52.876Z,86.72
2023-06-05T22:56:19.873Z,87.72
2023-06-05T22:58:47.022Z,90.82
2023-06-05T23:01:17.743Z,97.30
2023-06-05T23:03:45.377Z,95.00
2023-06-05T23:06:12.461Z,98.46
2023-06-05T23:08:39.388Z,98.66
2023-06-05T23:11:06.246Z,100.00
2023-06-05T23:13:33.118Z,100.00
2023-06-05T23:16:00.472Z,100.00
2023-06-05T23:18:27.386Z,100.00
2023-06-05T23:20:54.286Z,100.00
2023-06-05T23:23:21.357Z,100.00
2023-06-05T23:25:49.386Z,100.00
2023-06-05T23:28:17.091Z,100.00
2023-06-05T23:30:44.171Z,100.00
2023-06-05T23:33:13.647Z,100.00
2023-06-05T23:35:41.506Z,100.00
2023-06-05T23:38:08.538Z,100.00
2023-06-05T23:40:35.538Z,100.00
2023-06-05T23:43:03.099Z,100.00
2023-06-05T23:45:31.213Z,100.00
2023-06-05T23:47:58.937Z,100.00
2023-06-05T23:50:26.300Z,91.77
2023-06-05T23:52:55.190Z,85.46
2023-06-05T23:55:24.742Z,81.72
2023-06-05T23:57:52.874Z,83.80
